sensor_id;sensor_type;location;lat;lon;timestamp;pressure;altitude;pressure_sealevel;temperature;humidity
35519;BME280;21627;48.216;16.482;2022-12-28T00:01:50;100999.06;;;0.77;100.00
35519;BME280;21627;48.216;16.482;2022-12-28T00:04:18;100994.78;;;0.76;100.00
35519;BME280;21627;48.216;16.482;2022-12-28T00:06:45;100990.56;;;0.76;100.00
35519;BME280;21627;48.216;16.482;2022-12-28T00:09:13;100990.22;;;0.85;100.00
35519;BME280;21627;48.216;16.482;2022-12-28T00:11:40;100982.41;;;0.82;100.00
35519;BME280;21627;48.216;16.482;2022-12-28T00:14:08;100968.44;;;0.75;100.00
35519;BME280;21627;48.216;16.482;2022-12-28T00:16:40;100971.66;;;0.73;100.00
35519;BME280;21627;48.216;16.482;2022-12-28T00:19:13;100995.84;;;0.79;100.00
35519;BME280;21627;48.216;16.482;2022-12-28T00:21:43;100978.41;;;0.57;100.00
35519;BME280;21627;48.216;16.482;2022-12-28T00:24:18;100975.56;;;0.53;100.00
35519;BME280;21627;48.216;16.482;2022-12-28T00:26:46;100987.72;;;0.57;100.00
35519;BME280;21627;48.216;16.482;2022-12-28T00:29:13;100988.75;;;0.60;100.00
35519;BME280;21627;48.216;16.482;2022-12-28T00:31:43;100978.34;;;0.56;100.00
35519;BME280;21627;48.216;16.482;2022-12-28T00:34:12;100992.50;;;0.52;100.00
35519;BME280;21627;48.216;16.482;2022-12-28T00:36:40;100992.22;;;0.48;100.00
35519;BME280;21627;48.216;16.482;2022-12-28T00:39:27;100996.16;;;0.42;100.00
35519;BME280;21627;48.216;16.482;2022-12-28T00:41:55;100998.25;;;0.35;100.00
35519;BME280;21627;48.216;16.482;2022-12-28T00:44:22;100977.06;;;0.21;100.00
35519;BME280;21627;48.216;16.482;2022-12-28T00:46:52;100996.03;;;0.26;100.00
35519;BME280;21627;48.216;16.482;2022-12-28T00:49:19;100989.00;;;0.22;100.00
35519;BME280;21627;48.216;16.482;2022-12-28T00:51:46;100963.13;;;0.01;100.00
35519;BME280;21627;48.216;16.482;2022-12-28T00:54:14;100994.28;;;0.12;100.00
35519;BME280;21627;48.216;16.482;2022-12-28T00:56:41;100991.38;;;0.06;100.00
35519;BME280;21627;48.216;16.482;2022-12-28T00:59:18;100991.91;;;0.00;100.00
35519;BME280;21627;48.216;16.482;2022-12-28T01:01:45;100991.50;;;-0.06;100.00
35519;BME280;21627;48.216;16.482;2022-12-28T01:04:15;100975.47;;;-0.18;100.00
35519;BME280;21627;48.216;16.482;2022-12-28T01:06:42;100977.84;;;-0.22;100.00
35519;BME280;21627;48.216;16.482;2022-12-28T01:09:09;100970.78;;;-0.26;100.00
35519;BME280;21627;48.216;16.482;2022-12-28T01:11:36;100987.13;;;-0.22;100.00
35519;BME280;21627;48.216;16.482;2022-12-28T01:14:07;100980.75;;;-0.29;100.00
35519;BME280;21627;48.216;16.482;2022-12-28T01:16:35;100975.19;;;-0.36;100.00
35519;BME280;21627;48.216;16.482;2022-12-28T01:19:06;100965.41;;;-0.44;100.00
35519;BME280;21627;48.216;16.482;2022-12-28T01:21:34;100974.59;;;-0.46;100.00
35519;BME280;21627;48.216;16.482;2022-12-28T01:24:04;100973.53;;;-0.49;100.00
35519;BME280;21627;48.216;16.482;2022-12-28T01:26:33;100974.22;;;-0.52;100.00
35519;BME280;21627;48.216;16.482;2022-12-28T01:29:02;100984.00;;;-0.45;100.00
35519;BME280;21627;48.216;16.482;2022-12-28T01:31:29;100986.25;;;-0.49;100.00
35519;BME280;21627;48.216;16.482;2022-12-28T01:33:56;100985.06;;;-0.54;100.00
35519;BME280;21627;48.216;16.482;2022-12-28T01:36:26;100986.63;;;-0.56;100.00
35519;BME280;21627;48.216;16.482;2022-12-28T01:39:00;100985.56;;;-0.60;100.00
35519;BME280;21627;48.216;16.482;2022-12-28T01:41:28;100985.25;;;-0.64;100.00
35519;BME280;21627;48.216;16.482;2022-12-28T01:52:14;100974.13;;;-0.80;100.00
35519;BME280;21627;48.216;16.482;2022-12-28T01:54:55;100959.63;;;-0.94;100.00
35519;BME280;21627;48.216;16.482;2022-12-28T01:57:27;100946.63;;;-0.99;100.00
35519;BME280;21627;48.216;16.482;2022-12-28T02:00:05;100944.88;;;-1.00;100.00
35519;BME280;21627;48.216;16.482;2022-12-28T02:02:35;100958.88;;;-0.93;100.00
35519;BME280;21627;48.216;16.482;2022-12-28T02:05:03;100968.91;;;-0.95;100.00
35519;BME280;21627;48.216;16.482;2022-12-28T02:10:28;100941.84;;;-1.07;100.00
35519;BME280;21627;48.216;16.482;2022-12-28T02:13:14;100952.09;;;-1.06;100.00
35519;BME280;21627;48.216;16.482;2022-12-28T02:15:44;100942.03;;;-1.04;100.00
35519;BME280;21627;48.216;16.482;2022-12-28T02:18:13;100933.06;;;-1.13;100.00
35519;BME280;21627;48.216;16.482;2022-12-28T02:30:25;100910.97;;;-1.27;100.00
35519;BME280;21627;48.216;16.482;2022-12-28T02:33:23;100903.25;;;-1.28;100.00
35519;BME280;21627;48.216;16.482;2022-12-28T02:36:10;100896.03;;;-1.36;100.00
35519;BME280;21627;48.216;16.482;2022-12-28T02:39:02;100879.91;;;-1.36;100.00
35519;BME280;21627;48.216;16.482;2022-12-28T02:41:31;100876.19;;;-1.41;100.00
35519;BME280;21627;48.216;16.482;2022-12-28T02:43:59;100874.91;;;-1.48;100.00
35519;BME280;21627;48.216;16.482;2022-12-28T02:46:31;100888.88;;;-1.41;100.00
35519;BME280;21627;48.216;16.482;2022-12-28T02:49:37;100889.66;;;-1.42;100.00
35519;BME280;21627;48.216;16.482;2022-12-28T03:10:38;100857.16;;;-1.61;100.00
35519;BME280;21627;48.216;16.482;2022-12-28T03:13:42;100856.03;;;-1.65;100.00
35519;BME280;21627;48.216;16.482;2022-12-28T03:16:19;100854.06;;;-1.69;100.00
35519;BME280;21627;48.216;16.482;2022-12-28T03:19:12;100843.53;;;-1.75;100.00
35519;BME280;21627;48.216;16.482;2022-12-28T03:21:58;100827.16;;;-1.67;100.00
35519;BME280;21627;48.216;16.482;2022-12-28T03:24:44;100845.41;;;-1.72;100.00
35519;BME280;21627;48.216;16.482;2022-12-28T03:27:30;100839.03;;;-1.79;100.00
35519;BME280;21627;48.216;16.482;2022-12-28T03:30:19;100849.09;;;-1.81;100.00
35519;BME280;21627;48.216;16.482;2022-12-28T03:33:07;100828.84;;;-1.92;100.00
35519;BME280;21627;48.216;16.482;2022-12-28T03:42:17;100833.75;;;-1.82;100.00
35519;BME280;21627;48.216;16.482;2022-12-28T03:45:43;100825.28;;;-1.83;100.00
35519;BME280;21627;48.216;16.482;2022-12-28T03:48:15;100812.88;;;-1.91;100.00
35519;BME280;21627;48.216;16.482;2022-12-28T03:50:46;100829.00;;;-1.78;100.00
35519;BME280;21627;48.216;16.482;2022-12-28T03:53:23;100832.75;;;-1.84;100.00
35519;BME280;21627;48.216;16.482;2022-12-28T03:56:12;100826.63;;;-1.88;100.00
35519;BME280;21627;48.216;16.482;2022-12-28T03:58:40;100817.72;;;-1.94;100.00
35519;BME280;21627;48.216;16.482;2022-12-28T04:01:07;100829.16;;;-1.88;100.00
35519;BME280;21627;48.216;16.482;2022-12-28T04:03:34;100816.09;;;-1.94;100.00
35519;BME280;21627;48.216;16.482;2022-12-28T04:06:02;100799.31;;;-1.92;100.00
35519;BME280;21627;48.216;16.482;2022-12-28T04:08:31;100787.53;;;-1.91;100.00
35519;BME280;21627;48.216;16.482;2022-12-28T04:10:59;100792.59;;;-1.91;100.00
35519;BME280;21627;48.216;16.482;2022-12-28T04:13:31;100788.59;;;-1.88;100.00
35519;BME280;21627;48.216;16.482;2022-12-28T04:16:01;100784.69;;;-1.96;100.00
35519;BME280;21627;48.216;16.482;2022-12-28T04:18:31;100772.38;;;-2.03;100.00
35519;BME280;21627;48.216;16.482;2022-12-28T04:21:00;100766.34;;;-2.05;100.00
35519;BME280;21627;48.216;16.482;2022-12-28T04:23:27;100766.13;;;-2.08;100.00
35519;BME280;21627;48.216;16.482;2022-12-28T04:26:10;100756.25;;;-2.17;100.00
35519;BME280;21627;48.216;16.482;2022-12-28T04:28:39;100780.66;;;-2.06;100.00
35519;BME280;21627;48.216;16.482;2022-12-28T04:31:09;100778.00;;;-2.07;100.00
35519;BME280;21627;48.216;16.482;2022-12-28T04:33:39;100778.69;;;-2.10;100.00
35519;BME280;21627;48.216;16.482;2022-12-28T04:36:14;100771.97;;;-2.09;100.00
35519;BME280;21627;48.216;16.482;2022-12-28T04:38:42;100777.63;;;-2.13;100.00
35519;BME280;21627;48.216;16.482;2022-12-28T04:41:10;100783.69;;;-2.11;100.00
35519;BME280;21627;48.216;16.482;2022-12-28T04:43:39;100773.91;;;-2.19;100.00
35519;BME280;21627;48.216;16.482;2022-12-28T04:46:11;100776.06;;;-2.11;100.00
35519;BME280;21627;48.216;16.482;2022-12-28T04:48:40;100756.94;;;-2.20;100.00
35519;BME280;21627;48.216;16.482;2022-12-28T04:51:25;100763.19;;;-2.14;100.00
35519;BME280;21627;48.216;16.482;2022-12-28T04:53:54;100752.53;;;-2.22;100.00
35519;BME280;21627;48.216;16.482;2022-12-28T04:56:23;100729.44;;;-2.27;100.00
35519;BME280;21627;48.216;16.482;2022-12-28T04:58:59;100741.72;;;-2.20;100.00
35519;BME280;21627;48.216;16.482;2022-12-28T05:01:27;100728.47;;;-2.29;100.00
35519;BME280;21627;48.216;16.482;2022-12-28T05:03:55;100735.59;;;-2.23;100.00
35519;BME280;21627;48.216;16.482;2022-12-28T05:06:26;100738.13;;;-2.23;100.00
35519;BME280;21627;48.216;16.482;2022-12-28T05:08:55;100733.53;;;-2.29;100.00
35519;BME280;21627;48.216;16.482;2022-12-28T05:11:27;100732.06;;;-2.25;100.00
35519;BME280;21627;48.216;16.482;2022-12-28T05:13:55;100743.06;;;-2.25;100.00
35519;BME280;21627;48.216;16.482;2022-12-28T05:16:26;100737.94;;;-2.26;100.00
35519;BME280;21627;48.216;16.482;2022-12-28T05:18:55;100730.31;;;-2.26;100.00
35519;BME280;21627;48.216;16.482;2022-12-28T05:21:26;100737.81;;;-2.28;100.00
35519;BME280;21627;48.216;16.482;2022-12-28T05:23:54;100718.78;;;-2.34;100.00
35519;BME280;21627;48.216;16.482;2022-12-28T05:26:26;100694.72;;;-2.41;100.00
35519;BME280;21627;48.216;16.482;2022-12-28T05:28:55;100719.88;;;-2.31;100.00
35519;BME280;21627;48.216;16.482;2022-12-28T05:31:23;100712.09;;;-2.34;100.00
35519;BME280;21627;48.216;16.482;2022-12-28T05:33:51;100690.00;;;-2.48;100.00
35519;BME280;21627;48.216;16.482;2022-12-28T05:36:23;100713.72;;;-2.34;100.00
35519;BME280;21627;48.216;16.482;2022-12-28T05:38:51;100717.91;;;-2.35;100.00
35519;BME280;21627;48.216;16.482;2022-12-28T05:41:23;100724.44;;;-2.38;100.00
35519;BME280;21627;48.216;16.482;2022-12-28T05:43:51;100721.03;;;-2.39;100.00
35519;BME280;21627;48.216;16.482;2022-12-28T05:46:26;100726.78;;;-2.42;100.00
35519;BME280;21627;48.216;16.482;2022-12-28T05:48:54;100714.34;;;-2.50;100.00
35519;BME280;21627;48.216;16.482;2022-12-28T05:51:24;100735.13;;;-2.43;100.00
35519;BME280;21627;48.216;16.482;2022-12-28T05:53:52;100726.66;;;-2.43;100.00
35519;BME280;21627;48.216;16.482;2022-12-28T05:56:23;100722.47;;;-2.43;100.00
35519;BME280;21627;48.216;16.482;2022-12-28T05:58:54;100721.59;;;-2.43;100.00
35519;BME280;21627;48.216;16.482;2022-12-28T06:01:25;100719.06;;;-2.43;100.00
35519;BME280;21627;48.216;16.482;2022-12-28T06:04:03;100716.53;;;-2.43;100.00
35519;BME280;21627;48.216;16.482;2022-12-28T06:06:32;100724.91;;;-2.44;100.00
35519;BME280;21627;48.216;16.482;2022-12-28T06:09:01;100709.09;;;-2.53;100.00
35519;BME280;21627;48.216;16.482;2022-12-28T06:11:29;100709.88;;;-2.54;100.00
35519;BME280;21627;48.216;16.482;2022-12-28T06:13:57;100714.47;;;-2.49;100.00
35519;BME280;21627;48.216;16.482;2022-12-28T06:16:28;100719.41;;;-2.50;100.00
35519;BME280;21627;48.216;16.482;2022-12-28T06:18:56;100721.75;;;-2.53;100.00
35519;BME280;21627;48.216;16.482;2022-12-28T06:21:30;100725.16;;;-2.53;100.00
35519;BME280;21627;48.216;16.482;2022-12-28T06:23:58;100728.56;;;-2.52;100.00
35519;BME280;21627;48.216;16.482;2022-12-28T06:26:29;100727.59;;;-2.54;100.00
35519;BME280;21627;48.216;16.482;2022-12-28T06:28:58;100723.41;;;-2.54;100.00
35519;BME280;21627;48.216;16.482;2022-12-28T06:31:31;100720.09;;;-2.53;100.00
35519;BME280;21627;48.216;16.482;2022-12-28T06:34:01;100723.50;;;-2.52;100.00
35519;BME280;21627;48.216;16.482;2022-12-28T06:36:41;100717.75;;;-2.50;100.00
35519;BME280;21627;48.216;16.482;2022-12-28T06:39:11;100716.13;;;-2.49;100.00
35519;BME280;21627;48.216;16.482;2022-12-28T06:41:40;100717.00;;;-2.49;100.00
35519;BME280;21627;48.216;16.482;2022-12-28T06:44:10;100711.94;;;-2.49;100.00
35519;BME280;21627;48.216;16.482;2022-12-28T06:46:38;100702.28;;;-2.54;100.00
35519;BME280;21627;48.216;16.482;2022-12-28T06:49:05;100720.50;;;-2.47;100.00
35519;BME280;21627;48.216;16.482;2022-12-28T06:51:36;100711.16;;;-2.48;100.00
35519;BME280;21627;48.216;16.482;2022-12-28T06:54:07;100716.22;;;-2.48;100.00
35519;BME280;21627;48.216;16.482;2022-12-28T06:56:35;100706.94;;;-2.47;100.00
35519;BME280;21627;48.216;16.482;2022-12-28T06:59:03;100707.84;;;-2.47;100.00
35519;BME280;21627;48.216;16.482;2022-12-28T07:01:37;100712.00;;;-2.47;100.00
35519;BME280;21627;48.216;16.482;2022-12-28T07:04:07;100703.75;;;-2.45;100.00
35519;BME280;21627;48.216;16.482;2022-12-28T07:06:38;100697.50;;;-2.50;100.00
35519;BME280;21627;48.216;16.482;2022-12-28T07:09:11;100685.44;;;-2.54;100.00
35519;BME280;21627;48.216;16.482;2022-12-28T07:11:40;100670.81;;;-2.45;100.00
35519;BME280;21627;48.216;16.482;2022-12-28T07:14:07;100664.22;;;-2.43;100.00
35519;BME280;21627;48.216;16.482;2022-12-28T07:16:34;100672.63;;;-2.30;100.00
35519;BME280;21627;48.216;16.482;2022-12-28T07:19:01;100670.22;;;-2.29;100.00
35519;BME280;21627;48.216;16.482;2022-12-28T07:21:33;100673.72;;;-2.27;100.00
35519;BME280;21627;48.216;16.482;2022-12-28T07:24:00;100648.97;;;-2.31;100.00
35519;BME280;21627;48.216;16.482;2022-12-28T07:26:31;100661.66;;;-2.18;100.00
35519;BME280;21627;48.216;16.482;2022-12-28T07:29:02;100660.22;;;-2.14;100.00
35519;BME280;21627;48.216;16.482;2022-12-28T07:31:33;100647.31;;;-2.17;100.00
35519;BME280;21627;48.216;16.482;2022-12-28T07:34:10;100654.66;;;-2.08;100.00
35519;BME280;21627;48.216;16.482;2022-12-28T07:36:38;100667.13;;;-1.98;100.00
35519;BME280;21627;48.216;16.482;2022-12-28T07:39:05;100672.81;;;-1.89;100.00
35519;BME280;21627;48.216;16.482;2022-12-28T07:41:33;100661.69;;;-1.91;100.00
35519;BME280;21627;48.216;16.482;2022-12-28T07:44:02;100670.75;;;-1.81;100.00
35519;BME280;21627;48.216;16.482;2022-12-28T07:46:33;100675.34;;;-1.76;100.00
35519;BME280;21627;48.216;16.482;2022-12-28T07:49:01;100666.75;;;-1.78;100.00
35519;BME280;21627;48.216;16.482;2022-12-28T07:51:34;100666.94;;;-1.75;100.00
35519;BME280;21627;48.216;16.482;2022-12-28T07:54:02;100681.38;;;-1.60;100.00
35519;BME280;21627;48.216;16.482;2022-12-28T07:56:31;100675.94;;;-1.53;100.00
35519;BME280;21627;48.216;16.482;2022-12-28T07:59:03;100666.84;;;-1.49;100.00
35519;BME280;21627;48.216;16.482;2022-12-28T08:01:34;100674.16;;;-1.41;100.00
35519;BME280;21627;48.216;16.482;2022-12-28T08:04:06;100679.09;;;-1.29;100.00
35519;BME280;21627;48.216;16.482;2022-12-28T08:06:37;100662.25;;;-1.28;100.00
35519;BME280;21627;48.216;16.482;2022-12-28T08:09:06;100669.34;;;-1.23;100.00
35519;BME280;21627;48.216;16.482;2022-12-28T08:11:37;100676.34;;;-1.19;100.00
35519;BME280;21627;48.216;16.482;2022-12-28T08:14:06;100699.06;;;-1.07;100.00
35519;BME280;21627;48.216;16.482;2022-12-28T08:16:37;100689.22;;;-1.02;100.00
35519;BME280;21627;48.216;16.482;2022-12-28T08:19:06;100692.03;;;-0.98;100.00
35519;BME280;21627;48.216;16.482;2022-12-28T08:21:41;100682.16;;;-0.93;100.00
35519;BME280;21627;48.216;16.482;2022-12-28T08:24:14;100679.63;;;-0.93;100.00
35519;BME280;21627;48.216;16.482;2022-12-28T08:26:42;100677.34;;;-0.89;100.00
35519;BME280;21627;48.216;16.482;2022-12-28T08:29:19;100693.44;;;-0.75;100.00
35519;BME280;21627;48.216;16.482;2022-12-28T08:31:49;100693.50;;;-0.73;100.00
35519;BME280;21627;48.216;16.482;2022-12-28T08:34:20;100696.44;;;-0.67;100.00
35519;BME280;21627;48.216;16.482;2022-12-28T08:36:55;100710.84;;;-0.53;100.00
35519;BME280;21627;48.216;16.482;2022-12-28T08:39:22;100693.66;;;-0.57;100.00
35519;BME280;21627;48.216;16.482;2022-12-28T08:41:49;100699.19;;;-0.49;100.00
35519;BME280;21627;48.216;16.482;2022-12-28T08:44:17;100689.81;;;-0.50;100.00
35519;BME280;21627;48.216;16.482;2022-12-28T08:46:44;100682.44;;;-0.46;100.00
35519;BME280;21627;48.216;16.482;2022-12-28T08:49:11;100697.38;;;-0.37;100.00
35519;BME280;21627;48.216;16.482;2022-12-28T08:51:40;100713.63;;;-0.20;100.00
35519;BME280;21627;48.216;16.482;2022-12-28T08:54:11;100705.28;;;-0.17;100.00
35519;BME280;21627;48.216;16.482;2022-12-28T08:56:42;100728.25;;;-0.01;100.00
35519;BME280;21627;48.216;16.482;2022-12-28T08:59:14;100720.53;;;-0.03;100.00
35519;BME280;21627;48.216;16.482;2022-12-28T09:01:42;100723.06;;;-0.03;100.00
35519;BME280;21627;48.216;16.482;2022-12-28T09:04:20;100705.28;;;-0.03;100.00
35519;BME280;21627;48.216;16.482;2022-12-28T09:06:48;100719.16;;;0.03;100.00
35519;BME280;21627;48.216;16.482;2022-12-28T09:09:18;100727.13;;;0.09;100.00
35519;BME280;21627;48.216;16.482;2022-12-28T09:11:47;100708.53;;;0.10;100.00
35519;BME280;21627;48.216;16.482;2022-12-28T09:14:15;100721.41;;;0.28;100.00
35519;BME280;21627;48.216;16.482;2022-12-28T09:16:53;100718.53;;;0.36;100.00
35519;BME280;21627;48.216;16.482;2022-12-28T09:19:21;100711.31;;;0.44;100.00
35519;BME280;21627;48.216;16.482;2022-12-28T09:21:49;100702.44;;;0.52;100.00
35519;BME280;21627;48.216;16.482;2022-12-28T09:24:19;100705.75;;;0.66;100.00
35519;BME280;21627;48.216;16.482;2022-12-28T09:26:48;100702.94;;;0.76;100.00
35519;BME280;21627;48.216;16.482;2022-12-28T09:29:18;100704.53;;;0.91;100.00
35519;BME280;21627;48.216;16.482;2022-12-28T09:31:45;100709.25;;;0.99;100.00
35519;BME280;21627;48.216;16.482;2022-12-28T09:34:16;100717.31;;;1.07;100.00
35519;BME280;21627;48.216;16.482;2022-12-28T09:37:04;100704.72;;;1.10;100.00
35519;BME280;21627;48.216;16.482;2022-12-28T09:39:31;100708.19;;;1.27;100.00
35519;BME280;21627;48.216;16.482;2022-12-28T09:47:40;100705.63;;;1.60;100.00
35519;BME280;21627;48.216;16.482;2022-12-28T09:53:26;100684.41;;;1.77;100.00
35519;BME280;21627;48.216;16.482;2022-12-28T09:58:37;100673.03;;;2.05;100.00
35519;BME280;21627;48.216;16.482;2022-12-28T10:01:16;100684.22;;;2.25;98.76
35519;BME280;21627;48.216;16.482;2022-12-28T10:03:45;100682.63;;;2.45;97.80
35519;BME280;21627;48.216;16.482;2022-12-28T10:06:27;100666.84;;;2.53;95.16
35519;BME280;21627;48.216;16.482;2022-12-28T10:08:57;100677.72;;;2.67;95.95
35519;BME280;21627;48.216;16.482;2022-12-28T10:11:30;100676.31;;;2.74;96.48
35519;BME280;21627;48.216;16.482;2022-12-28T10:14:09;100675.91;;;2.84;95.77
35519;BME280;21627;48.216;16.482;2022-12-28T10:16:43;100658.78;;;2.81;95.60
35519;BME280;21627;48.216;16.482;2022-12-28T10:19:24;100671.38;;;2.96;94.81
35519;BME280;21627;48.216;16.482;2022-12-28T10:22:06;100662.66;;;3.11;91.48
35519;BME280;21627;48.216;16.482;2022-12-28T10:24:34;100659.16;;;3.09;90.68
35519;BME280;21627;48.216;16.482;2022-12-28T10:27:05;100667.38;;;3.21;90.18
35519;BME280;21627;48.216;16.482;2022-12-28T10:29:33;100656.00;;;3.14;90.28
35519;BME280;21627;48.216;16.482;2022-12-28T10:32:06;100635.63;;;3.16;90.37
35519;BME280;21627;48.216;16.482;2022-12-28T10:34:58;100633.06;;;3.35;89.94
35519;BME280;21627;48.216;16.482;2022-12-28T10:37:30;100637.34;;;3.56;90.17
35519;BME280;21627;48.216;16.482;2022-12-28T10:40:06;100619.69;;;3.62;89.03
35519;BME280;21627;48.216;16.482;2022-12-28T10:42:43;100617.78;;;3.77;90.72
35519;BME280;21627;48.216;16.482;2022-12-28T10:45:25;100614.97;;;3.71;90.44
35519;BME280;21627;48.216;16.482;2022-12-28T10:47:55;100613.69;;;3.81;90.57
35519;BME280;21627;48.216;16.482;2022-12-28T10:50:48;100631.16;;;3.91;89.31
35519;BME280;21627;48.216;16.482;2022-12-28T10:53:31;100631.81;;;3.87;86.58
35519;BME280;21627;48.216;16.482;2022-12-28T10:56:31;100634.19;;;3.82;88.27
35519;BME280;21627;48.216;16.482;2022-12-28T10:59:24;100613.84;;;3.85;89.61
35519;BME280;21627;48.216;16.482;2022-12-28T11:01:52;100594.56;;;3.73;90.56
35519;BME280;21627;48.216;16.482;2022-12-28T11:04:24;100601.97;;;3.87;89.46
35519;BME280;21627;48.216;16.482;2022-12-28T11:07:00;100594.63;;;3.95;90.00
35519;BME280;21627;48.216;16.482;2022-12-28T11:09:33;100596.69;;;4.04;90.85
35519;BME280;21627;48.216;16.482;2022-12-28T11:12:24;100585.19;;;4.15;91.54
35519;BME280;21627;48.216;16.482;2022-12-28T11:14:53;100564.41;;;4.30;91.21
35519;BME280;21627;48.216;16.482;2022-12-28T11:17:26;100577.34;;;4.55;91.26
35519;BME280;21627;48.216;16.482;2022-12-28T11:20:00;100560.63;;;4.65;88.13
35519;BME280;21627;48.216;16.482;2022-12-28T11:22:31;100551.53;;;4.51;87.79
35519;BME280;21627;48.216;16.482;2022-12-28T11:25:00;100564.88;;;4.65;88.91
35519;BME280;21627;48.216;16.482;2022-12-28T11:27:28;100550.94;;;4.57;88.79
35519;BME280;21627;48.216;16.482;2022-12-28T11:29:56;100549.16;;;4.55;88.84
35519;BME280;21627;48.216;16.482;2022-12-28T11:32:29;100549.16;;;4.55;88.93
35519;BME280;21627;48.216;16.482;2022-12-28T11:34:58;100555.22;;;4.58;89.57
35519;BME280;21627;48.216;16.482;2022-12-28T11:37:26;100536.03;;;4.46;86.01
35519;BME280;21627;48.216;16.482;2022-12-28T11:39:53;100551.63;;;4.52;88.72
35519;BME280;21627;48.216;16.482;2022-12-28T11:42:52;100538.13;;;4.57;89.67
35519;BME280;21627;48.216;16.482;2022-12-28T11:45:50;100534.06;;;4.63;88.57
35519;BME280;21627;48.216;16.482;2022-12-28T11:51:20;100526.03;;;4.76;89.28
35519;BME280;21627;48.216;16.482;2022-12-28T11:59:33;100520.53;;;4.90;88.37
35519;BME280;21627;48.216;16.482;2022-12-28T12:02:36;100506.13;;;4.93;87.38
35519;BME280;21627;48.216;16.482;2022-12-28T12:04:50;100498.06;;;5.07;86.46
35519;BME280;21627;48.216;16.482;2022-12-28T12:07:24;100501.78;;;5.16;85.80
35519;BME280;21627;48.216;16.482;2022-12-28T12:10:33;100492.84;;;5.31;85.99
35519;BME280;21627;48.216;16.482;2022-12-28T12:16:32;100485.47;;;5.40;82.43
35519;BME280;21627;48.216;16.482;2022-12-28T12:19:02;100480.34;;;5.40;83.34
35519;BME280;21627;48.216;16.482;2022-12-28T12:21:38;100461.31;;;5.33;83.92
35519;BME280;21627;48.216;16.482;2022-12-28T12:27:35;100473.81;;;5.50;80.64
35519;BME280;21627;48.216;16.482;2022-12-28T12:32:57;100470.09;;;5.40;79.18
35519;BME280;21627;48.216;16.482;2022-12-28T12:35:29;100458.84;;;5.36;78.57
35519;BME280;21627;48.216;16.482;2022-12-28T12:38:30;100477.78;;;5.40;80.00
35519;BME280;21627;48.216;16.482;2022-12-28T12:41:23;100472.91;;;5.48;82.45
35519;BME280;21627;48.216;16.482;2022-12-28T12:44:35;100459.53;;;5.58;83.66
35519;BME280;21627;48.216;16.482;2022-12-28T12:47:28;100450.53;;;5.43;84.71
35519;BME280;21627;48.216;16.482;2022-12-28T13:04:42;100427.13;;;6.17;80.37
35519;BME280;21627;48.216;16.482;2022-12-28T13:07:24;100433.94;;;6.47;78.45
35519;BME280;21627;48.216;16.482;2022-12-28T13:09:57;100424.06;;;6.61;76.62
35519;BME280;21627;48.216;16.482;2022-12-28T13:12:25;100412.00;;;6.91;77.12
35519;BME280;21627;48.216;16.482;2022-12-28T13:14:58;100404.28;;;7.26;75.52
35519;BME280;21627;48.216;16.482;2022-12-28T13:17:27;100375.31;;;7.33;73.97
35519;BME280;21627;48.216;16.482;2022-12-28T13:20:19;100398.63;;;7.79;72.80
35519;BME280;21627;48.216;16.482;2022-12-28T13:22:47;100405.66;;;7.86;70.64
35519;BME280;21627;48.216;16.482;2022-12-28T13:25:32;100404.09;;;7.96;70.80
35519;BME280;21627;48.216;16.482;2022-12-28T13:28:02;100404.91;;;7.93;71.28
35519;BME280;21627;48.216;16.482;2022-12-28T13:30:30;100400.97;;;8.09;70.03
35519;BME280;21627;48.216;16.482;2022-12-28T13:33:00;100399.69;;;7.89;70.76
35519;BME280;21627;48.216;16.482;2022-12-28T13:35:32;100396.06;;;7.79;71.45
35519;BME280;21627;48.216;16.482;2022-12-28T13:38:11;100401.09;;;7.74;70.67
35519;BME280;21627;48.216;16.482;2022-12-28T13:40:51;100398.13;;;7.56;72.22
35519;BME280;21627;48.216;16.482;2022-12-28T13:46:18;100371.31;;;7.10;73.50
35519;BME280;21627;48.216;16.482;2022-12-28T13:48:49;100378.59;;;6.91;74.24
35519;BME280;21627;48.216;16.482;2022-12-28T13:51:19;100378.06;;;6.71;75.60
35519;BME280;21627;48.216;16.482;2022-12-28T13:53:54;100374.78;;;6.44;76.94
35519;BME280;21627;48.216;16.482;2022-12-28T13:56:25;100368.44;;;6.31;77.65
35519;BME280;21627;48.216;16.482;2022-12-28T13:59:09;100377.88;;;6.31;77.50
35519;BME280;21627;48.216;16.482;2022-12-28T14:01:43;100377.25;;;6.09;78.35
35519;BME280;21627;48.216;16.482;2022-12-28T14:04:17;100388.38;;;6.10;79.01
35519;BME280;21627;48.216;16.482;2022-12-28T14:07:14;100379.75;;;6.06;79.01
35519;BME280;21627;48.216;16.482;2022-12-28T14:09:43;100359.31;;;5.80;80.26
35519;BME280;21627;48.216;16.482;2022-12-28T14:12:12;100376.28;;;5.77;81.54
35519;BME280;21627;48.216;16.482;2022-12-28T14:14:41;100365.78;;;5.68;82.30
35519;BME280;21627;48.216;16.482;2022-12-28T14:17:09;100345.53;;;5.48;83.05
35519;BME280;21627;48.216;16.482;2022-12-28T14:19:37;100365.22;;;5.49;84.16
35519;BME280;21627;48.216;16.482;2022-12-28T14:22:33;100364.41;;;5.50;83.92
35519;BME280;21627;48.216;16.482;2022-12-28T14:25:18;100366.69;;;5.41;84.92
35519;BME280;21627;48.216;16.482;2022-12-28T14:28:01;100363.78;;;5.30;85.83
35519;BME280;21627;48.216;16.482;2022-12-28T14:30:35;100371.19;;;5.21;86.52
35519;BME280;21627;48.216;16.482;2022-12-28T14:33:19;100356.25;;;5.08;87.23
35519;BME280;21627;48.216;16.482;2022-12-28T14:36:00;100362.09;;;5.04;88.20
35519;BME280;21627;48.216;16.482;2022-12-28T14:38:37;100356.47;;;4.88;88.56
35519;BME280;21627;48.216;16.482;2022-12-28T14:41:22;100355.53;;;4.86;89.44
35519;BME280;21627;48.216;16.482;2022-12-28T14:43:56;100358.84;;;4.82;89.56